Time;durP1;ratioP1;P1;durP2;ratioP2;P2;SDS_P1;SDS_P2;PMS_P1;PMS_P2;Temp;Humidity;BMP_temperature;BMP_pressure;BME280_temperature;BME280_humidity;BME280_pressure;Samples;Min_cycle;Max_cycle;Signal;HPM_P1;HPM_P2
2022/08/02 00:00:21;;;;;;;4.32;2.35;;;;;;;23.49;36.19;99399.66;5072441;28;20082;-69
2022/08/02 00:02:49;;;;;;;6.88;2.05;;;;;;;23.57;36.56;99418.19;5057471;28;20581;-69
2022/08/02 00:05:25;;;;;;;3.28;2.15;;;;;;;23.64;36.14;99418.03;5089747;28;20051;-69
2022/08/02 00:07:58;;;;;;;5.18;2.28;;;;;;;23.56;36.25;99404.88;5059523;28;20060;-69
2022/08/02 00:10:25;;;;;;;6.68;2.08;;;;;;;23.62;36.13;99426.41;5093445;28;20051;-68
2022/08/02 00:12:51;;;;;;;5.90;2.30;;;;;;;23.45;36.38;99419.38;5059821;28;20089;-69
2022/08/02 00:15:17;;;;;;;9.10;2.28;;;;;;;23.53;36.21;99410.78;5076407;28;20507;-69
2022/08/02 00:17:43;;;;;;;18.20;2.30;;;;;;;23.52;36.29;99422.72;5059656;28;20036;-69
2022/08/02 00:20:16;;;;;;;8.43;2.30;;;;;;;23.73;36.15;99413.81;5076246;28;20052;-70
2022/08/02 00:22:47;;;;;;;10.25;2.28;;;;;;;23.58;36.02;99409.00;5093467;28;20044;-67
2022/08/02 00:25:18;;;;;;;9.20;2.58;;;;;;;23.66;36.08;99396.91;5076631;28;20082;-70
2022/08/02 00:27:50;;;;;;;6.43;2.05;;;;;;;23.53;35.98;99392.66;5060885;28;20205;-69
2022/08/02 00:30:16;;;;;;;7.30;2.30;;;;;;;23.69;36.18;99404.56;5042535;28;20139;-69
2022/08/02 00:32:42;;;;;;;8.27;2.63;;;;;;;23.59;36.11;99416.06;5043196;28;20189;-69
2022/08/02 00:35:34;;;;;;;8.80;2.60;;;;;;;23.71;36.08;99414.06;5079399;28;20451;-69
2022/08/02 00:38:06;;;;;;;6.78;2.22;;;;;;;23.66;36.30;99408.59;5057680;28;20048;-69
2022/08/02 00:40:32;;;;;;;8.25;2.35;;;;;;;23.48;36.57;99408.03;5056241;28;20548;-70
2022/08/02 00:43:10;;;;;;;3.80;2.15;;;;;;;23.72;36.53;99409.47;5055867;28;20043;-70
2022/08/02 00:45:39;;;;;;;9.43;2.60;;;;;;;23.69;36.77;99410.81;5038993;28;20104;-69
2022/08/02 00:48:07;;;;;;;6.47;2.47;;;;;;;23.64;36.47;99410.72;5072797;28;20113;-70
2022/08/02 00:50:33;;;;;;;6.30;2.30;;;;;;;23.51;36.98;99399.41;5039798;28;20516;-69
2022/08/02 00:53:00;;;;;;;8.82;2.55;;;;;;;23.28;37.34;99409.31;5073993;28;20051;-68
2022/08/02 00:55:26;;;;;;;6.50;2.40;;;;;;;23.33;37.62;99416.72;5059025;28;20048;-69
2022/08/02 00:57:56;;;;;;;7.85;2.05;;;;;;;23.24;37.69;99401.91;5092520;28;20516;-70
2022/08/02 01:00:22;;;;;;;9.20;2.55;;;;;;;23.46;37.44;99407.44;5058574;28;20048;-70
2022/08/02 01:02:51;;;;;;;4.82;2.22;;;;;;;23.33;37.43;99400.44;5075552;28;20086;-68
2022/08/02 01:05:20;;;;;;;5.88;2.33;;;;;;;23.30;37.83;99398.22;5076063;28;20448;-68
2022/08/02 01:07:45;;;;;;;5.10;2.40;;;;;;;23.25;37.59;99404.38;5075700;28;20043;-69
2022/08/02 01:10:12;;;;;;;4.63;2.25;;;;;;;23.23;37.84;99400.25;5042215;28;20040;-69
2022/08/02 01:12:38;;;;;;;9.90;2.50;;;;;;;23.31;37.66;99407.19;5075981;28;20048;-68
2022/08/02 01:15:08;;;;;;;5.13;2.10;;;;;;;23.43;37.74;99406.06;5058626;28;20036;-70
2022/08/02 01:18:04;;;;;;;7.68;2.20;;;;;;;23.51;37.54;99413.75;5058590;28;20124;-70
2022/08/02 01:20:55;;;;;;;11.65;2.38;;;;;;;23.37;37.96;99398.91;5091933;28;20040;-69
2022/08/02 01:24:04;;;;;;;7.75;2.50;;;;;;;23.32;38.13;99409.66;5058394;28;20044;-69
2022/08/02 01:26:44;;;;;;;6.45;2.20;;;;;;;23.10;38.15;99368.06;5031952;28;20048;-69
2022/08/02 01:29:22;;;;;;;6.13;2.40;;;;;;;23.11;38.77;99408.44;5092144;28;20572;-69
2022/08/02 01:31:56;;;;;;;5.88;2.35;;;;;;;23.18;38.57;99408.28;5092551;28;20555;-69
2022/08/02 01:34:54;;;;;;;5.70;2.20;;;;;;;23.17;38.65;99409.38;5089714;28;20047;-70
2022/08/02 01:37:25;;;;;;;10.48;2.33;;;;;;;23.11;38.79;99411.16;5058513;28;20047;-69
2022/08/02 01:40:00;;;;;;;6.68;2.80;;;;;;;22.98;38.84;99386.25;5074609;28;20417;-69
2022/08/02 01:42:26;;;;;;;6.35;2.58;;;;;;;22.99;39.17;99404.97;5091163;28;20044;-70
2022/08/02 01:44:53;;;;;;;6.35;2.08;;;;;;;23.05;39.22;99414.84;5074089;28;20055;-69
2022/08/02 01:47:22;;;;;;;5.70;2.30;;;;;;;23.14;38.99;99421.50;5039075;28;20048;-69
2022/08/02 01:49:51;;;;;;;8.27;2.60;;;;;;;23.01;39.09;99421.00;5039010;28;20048;-69
2022/08/02 01:52:24;;;;;;;13.82;2.95;;;;;;;22.86;39.57;99416.09;5073754;28;20055;-70
2022/08/02 01:55:06;;;;;;;9.80;2.60;;;;;;;23.01;39.40;99424.53;5056348;28;20048;-69
2022/08/02 01:57:56;;;;;;;5.68;2.60;;;;;;;22.94;39.57;99420.31;5089148;28;20048;-70
2022/08/02 02:00:25;;;;;;;7.80;2.60;;;;;;;22.96;39.52;99426.31;5055580;28;20040;-69
2022/08/02 02:02:53;;;;;;;4.75;2.50;;;;;;;22.90;39.56;99419.16;5074496;28;20135;-67
2022/08/02 02:05:20;;;;;;;6.20;2.50;;;;;;;22.95;39.59;99422.78;5057556;28;20132;-69
2022/08/02 02:07:49;;;;;;;8.10;2.45;;;;;;;23.05;39.49;99420.25;5073994;28;20081;-69
2022/08/02 02:10:18;;;;;;;5.15;2.50;;;;;;;23.01;39.66;99421.00;5041157;28;20048;-69
2022/08/02 02:12:50;;;;;;;5.10;2.60;;;;;;;22.92;39.69;99426.00;5074603;28;20074;-69
2022/08/02 02:15:20;;;;;;;6.05;2.55;;;;;;;22.81;39.61;99404.34;5057823;28;20060;-69
2022/08/02 02:17:50;;;;;;;6.78;2.40;;;;;;;23.01;39.46;99427.25;5074562;28;20475;-69
2022/08/02 02:20:18;;;;;;;5.97;2.70;;;;;;;22.77;39.62;99395.09;5074495;28;20139;-69
2022/08/02 02:22:46;;;;;;;8.32;2.60;;;;;;;22.95;39.69;99427.38;5090919;28;20398;-69
2022/08/02 02:25:16;;;;;;;5.93;2.60;;;;;;;22.99;39.42;99413.09;5074291;28;20087;-69
2022/08/02 02:27:49;;;;;;;10.18;2.90;;;;;;;23.18;39.58;99422.69;5090902;28;20048;-69
2022/08/02 02:30:16;;;;;;;6.15;2.80;;;;;;;22.88;39.49;99403.16;5073350;28;20052;-69
2022/08/02 02:32:47;;;;;;;7.50;2.80;;;;;;;23.16;39.14;99434.81;5057854;28;20052;-69
2022/08/02 02:35:21;;;;;;;7.15;2.85;;;;;;;23.07;39.44;99423.56;5091707;28;20031;-71
2022/08/02 02:37:50;;;;;;;5.40;2.50;;;;;;;23.18;39.19;99433.50;5073916;28;20063;-67
2022/08/02 02:40:21;;;;;;;5.30;2.88;;;;;;;22.95;39.38;99395.72;5073401;28;20052;-69
2022/08/02 02:42:55;;;;;;;7.55;3.10;;;;;;;23.07;39.85;99425.44;5074149;28;20060;-69
2022/08/02 02:45:26;;;;;;;9.70;3.17;;;;;;;23.05;39.79;99430.25;5074173;28;20048;-70
2022/08/02 02:47:55;;;;;;;7.47;3.25;;;;;;;23.11;39.52;99437.44;5074123;28;20086;-68
2022/08/02 02:50:29;;;;;;;5.35;3.25;;;;;;;22.95;39.78;99411.13;5058740;28;20090;-70
2022/08/02 02:52:59;;;;;;;11.05;3.50;;;;;;;23.02;39.66;99396.38;5073565;28;20066;-72
2022/08/02 02:55:46;;;;;;;5.85;2.90;;;;;;;23.27;39.20;99426.66;5073869;28;20052;-69
2022/08/02 02:58:13;;;;;;;8.68;3.45;;;;;;;23.33;39.42;99424.84;5088201;28;20105;-69
2022/08/02 03:03:25;;;;;;;7.03;3.17;;;;;;;23.49;38.95;99425.91;5058598;28;20138;-70
2022/08/02 03:05:51;;;;;;;8.88;3.40;;;;;;;23.31;39.26;99418.03;5073200;28;20047;-70
2022/08/02 03:08:19;;;;;;;6.43;3.20;;;;;;;23.45;39.04;99413.94;5057210;28;20105;-70
2022/08/02 03:10:45;;;;;;;5.72;3.10;;;;;;;23.51;38.85;99419.16;5056597;28;20075;-70
2022/08/02 03:13:14;;;;;;;12.48;2.85;;;;;;;23.66;38.91;99407.75;5056007;28;20119;-71
2022/08/02 03:15:46;;;;;;;5.72;2.85;;;;;;;23.60;38.60;99406.03;5076804;28;20102;-69
2022/08/02 03:18:37;;;;;;;7.75;2.55;;;;;;;23.96;38.32;99419.09;5073768;28;20584;-70
2022/08/02 03:21:14;;;;;;;5.35;2.67;;;;;;;23.92;38.29;99420.63;5089111;28;20114;-70
2022/08/02 03:23:43;;;;;;;7.68;2.70;;;;;;;23.86;37.94;99422.47;5089637;28;20594;-70
2022/08/02 03:26:10;;;;;;;5.13;2.70;;;;;;;23.78;37.92;99386.78;5056293;28;20043;-70
2022/08/02 03:28:39;;;;;;;6.53;2.88;;;;;;;24.08;37.82;99408.97;5057106;28;20048;-70
2022/08/02 03:31:09;;;;;;;5.50;2.75;;;;;;;24.22;37.72;99421.06;5072903;28;20039;-70
2022/08/02 03:33:42;;;;;;;6.50;2.80;;;;;;;24.27;37.87;99423.88;5087836;28;20055;-70
2022/08/02 03:36:11;;;;;;;12.40;2.70;;;;;;;24.32;37.58;99410.38;5055991;28;20061;-69
2022/08/02 03:38:38;;;;;;;7.18;2.70;;;;;;;24.23;37.87;99426.25;5089527;28;20138;-69
2022/08/02 03:41:08;;;;;;;5.65;2.90;;;;;;;24.26;37.71;99433.88;5090036;28;20083;-70
2022/08/02 03:43:38;;;;;;;9.82;3.00;;;;;;;24.37;37.71;99432.16;5055480;28;20504;-69
2022/08/02 03:46:06;;;;;;;4.95;2.83;;;;;;;24.52;37.58;99424.19;5055995;28;20036;-69
2022/08/02 03:48:34;;;;;;;11.70;3.08;;;;;;;24.61;37.54;99430.81;5072487;28;20040;-68
2022/08/02 03:50:59;;;;;;;6.68;2.90;;;;;;;24.66;37.44;99434.44;5055509;28;20035;-69
2022/08/02 03:53:26;;;;;;;8.38;2.95;;;;;;;24.81;36.90;99414.78;5055325;28;20530;-69
2022/08/02 03:55:52;;;;;;;9.48;3.53;;;;;;;25.10;37.03;99437.09;5055642;28;20051;-69
2022/08/02 03:58:23;;;;;;;13.95;3.58;;;;;;;25.38;36.33;99426.81;5055763;28;20130;-73
2022/08/02 04:00:50;;;;;;;6.22;3.08;;;;;;;25.66;35.99;99436.56;5087666;28;20072;-69
2022/08/02 04:03:16;;;;;;;7.07;3.20;;;;;;;25.83;35.50;99435.31;5055360;28;20055;-70
2022/08/02 04:05:43;;;;;;;12.63;3.08;;;;;;;25.98;35.12;99438.16;5055735;28;20052;-69
2022/08/02 04:08:10;;;;;;;12.07;3.00;;;;;;;26.23;35.27;99429.34;5072289;28;20043;-70
2022/08/02 04:13:27;;;;;;;8.40;2.80;;;;;;;26.76;34.61;99436.41;5074495;28;20060;-70
2022/08/02 04:15:57;;;;;;;9.32;3.10;;;;;;;26.82;34.38;99421.72;5089912;28;20555;-70
2022/08/02 04:18:30;;;;;;;7.82;3.20;;;;;;;27.07;33.91;99438.13;5072199;28;20139;-68
2022/08/02 04:20:59;;;;;;;10.63;3.30;;;;;;;26.71;34.08;99415.41;5055350;28;20048;-69
2022/08/02 04:23:28;;;;;;;5.05;2.70;;;;;;;27.00;33.53;99418.50;5088355;28;20139;-70
2022/08/02 04:25:57;;;;;;;11.23;3.22;;;;;;;27.28;33.53;99434.38;5055646;28;20402;-70
2022/08/02 04:28:26;;;;;;;9.05;3.72;;;;;;;27.64;33.07;99445.06;5072382;28;20149;-70
2022/08/02 04:31:01;;;;;;;9.27;3.70;;;;;;;27.74;32.90;99438.75;5089918;28;20064;-68
2022/08/02 04:33:51;;;;;;;9.82;3.03;;;;;;;27.90;32.51;99445.88;5089532;28;20044;-72
2022/08/02 04:36:42;;;;;;;6.65;2.92;;;;;;;27.92;32.12;99438.25;5074664;28;20083;-69
2022/08/02 04:39:16;;;;;;;13.23;2.90;;;;;;;28.07;31.88;99448.31;5056465;28;20067;-70
2022/08/02 04:41:45;;;;;;;8.85;2.83;;;;;;;28.38;32.16;99430.75;5071487;28;20044;-69
2022/08/02 04:44:14;;;;;;;7.77;2.90;;;;;;;28.60;31.28;99428.53;5070890;28;20052;-70
2022/08/02 04:46:58;;;;;;;9.60;3.13;;;;;;;28.89;30.63;99404.84;5071760;28;20052;-68
2022/08/02 04:49:29;;;;;;;12.27;2.88;;;;;;;29.37;30.05;99443.13;5087906;28;20123;-69
2022/08/02 04:51:59;;;;;;;10.03;2.70;;;;;;;29.58;29.72;99441.06;5072490;28;20105;-69
2022/08/02 04:54:52;;;;;;;4.70;2.53;;;;;;;30.09;29.15;99466.09;5078178;28;20043;-71
2022/08/02 05:00:16;;;;;;;9.95;3.13;;;;;;;30.05;28.19;99454.88;5057240;28;20451;-70
2022/08/02 05:02:44;;;;;;;9.93;3.20;;;;;;;30.11;28.11;99451.00;5056420;28;20881;-69
2022/08/02 05:05:12;;;;;;;8.63;2.70;;;;;;;30.08;28.00;99450.75;5090755;28;20073;-69
2022/08/02 05:07:40;;;;;;;8.05;2.70;;;;;;;29.81;29.03;99454.03;5090737;28;20039;-70
2022/08/02 05:10:06;;;;;;;11.85;3.25;;;;;;;29.90;29.05;99444.09;5073217;28;20091;-70
2022/08/02 05:12:34;;;;;;;7.40;2.42;;;;;;;30.09;28.24;99433.22;5056393;28;20040;-69
2022/08/02 05:15:02;;;;;;;7.18;2.95;;;;;;;30.53;28.04;99447.53;5091919;28;20044;-70
2022/08/02 05:17:29;;;;;;;6.50;2.50;;;;;;;30.35;27.89;99456.53;5091677;28;20040;-67
2022/08/02 05:19:55;;;;;;;8.50;2.78;;;;;;;30.47;27.97;99449.53;5074133;28;20138;-70
2022/08/02 05:22:20;;;;;;;13.25;2.50;;;;;;;30.61;27.40;99446.91;5092495;28;20050;-68
2022/08/02 05:24:46;;;;;;;14.25;2.97;;;;;;;30.87;27.71;99448.25;5091955;28;20089;-69
2022/08/02 05:27:12;;;;;;;13.45;2.42;;;;;;;30.95;27.48;99444.84;5090719;28;20915;-68
2022/08/02 05:29:37;;;;;;;12.80;2.95;;;;;;;30.97;27.30;99446.19;5073623;28;20036;-69
2022/08/02 05:32:03;;;;;;;6.85;2.55;;;;;;;31.04;27.31;99443.06;5090342;28;20073;-69
2022/08/02 05:34:29;;;;;;;9.82;2.80;;;;;;;31.11;27.24;99444.34;5090607;28;20421;-69
2022/08/02 05:36:54;;;;;;;12.23;2.63;;;;;;;31.31;26.93;99443.25;5090232;28;20135;-70
2022/08/02 05:39:20;;;;;;;12.27;2.58;;;;;;;31.26;26.62;99439.75;5057643;28;20516;-68
2022/08/02 05:41:46;;;;;;;8.45;2.72;;;;;;;31.22;26.58;99424.97;5090638;28;20036;-68
2022/08/02 05:44:12;;;;;;;7.72;2.67;;;;;;;31.30;26.69;99447.09;5090113;28;20059;-68
2022/08/02 05:46:37;;;;;;;8.57;2.40;;;;;;;31.37;26.52;99453.03;5091246;28;20036;-69
2022/08/02 05:49:03;;;;;;;2.95;2.42;;;;;;;31.43;26.64;99440.06;5056598;28;20127;-69
2022/08/02 05:51:39;;;;;;;8.77;2.75;;;;;;;31.67;26.09;99435.25;5072906;28;20497;-67
2022/08/02 05:54:18;;;;;;;7.75;2.65;;;;;;;31.79;25.86;99439.16;5089534;28;20048;-70
2022/08/02 05:56:46;;;;;;;8.77;2.72;;;;;;;31.56;25.83;99439.28;5091890;28;20063;-68
2022/08/02 05:59:33;;;;;;;10.77;2.67;;;;;;;31.27;26.20;99435.88;5090020;28;20504;-68
2022/08/02 06:02:03;;;;;;;9.15;2.50;;;;;;;31.12;26.44;99426.75;5091568;28;20060;-71
2022/08/02 06:04:34;;;;;;;15.73;3.50;;;;;;;31.35;26.51;99416.84;5088879;28;20052;-70
2022/08/02 06:07:05;;;;;;;8.02;3.08;;;;;;;31.82;26.14;99432.25;5091311;28;20511;-69
2022/08/02 06:09:32;;;;;;;17.88;3.28;;;;;;;32.24;25.58;99430.13;5090117;28;20123;-69
2022/08/02 06:11:59;;;;;;;8.00;2.70;;;;;;;32.41;25.49;99432.28;5072270;28;20512;-68
2022/08/02 06:14:25;;;;;;;10.80;3.22;;;;;;;32.21;25.63;99429.91;5088685;28;20498;-69
2022/08/02 06:16:51;;;;;;;9.77;2.53;;;;;;;32.04;25.42;99430.50;5089496;28;20109;-69
2022/08/02 06:19:19;;;;;;;12.10;2.42;;;;;;;31.75;25.24;99440.06;5055782;28;20040;-71
2022/08/02 06:21:45;;;;;;;6.35;2.40;;;;;;;31.41;26.02;99425.81;5088898;28;20588;-69
2022/08/02 06:24:12;;;;;;;10.52;5.20;;;;;;;31.32;26.68;99420.19;5071961;28;20040;-69
2022/08/02 06:26:38;;;;;;;7.75;2.78;;;;;;;31.21;26.38;99423.34;5089054;28;20413;-69
2022/08/02 06:29:04;;;;;;;12.05;2.58;;;;;;;31.45;26.28;99419.41;5089604;28;20054;-69
2022/08/02 06:31:30;;;;;;;8.43;2.50;;;;;;;31.54;26.27;99430.53;5090699;28;20040;-69
2022/08/02 06:33:56;;;;;;;10.55;2.42;;;;;;;31.60;25.86;99426.59;5088618;28;20051;-70
2022/08/02 06:36:28;;;;;;;7.80;2.70;;;;;;;31.85;25.90;99415.19;5055645;28;20036;-69
2022/08/02 06:39:03;;;;;;;8.90;2.67;;;;;;;31.98;25.76;99417.16;5088784;28;20047;-67
2022/08/02 06:41:41;;;;;;;10.77;2.47;;;;;;;32.01;25.54;99424.78;5071781;28;20497;-69
2022/08/02 06:44:13;;;;;;;8.13;2.75;;;;;;;31.93;25.32;99422.75;5072795;28;20051;-69
2022/08/02 06:46:39;;;;;;;10.88;2.33;;;;;;;32.20;25.11;99422.75;5088335;28;20048;-69
2022/08/02 06:49:04;;;;;;;3.22;2.10;;;;;;;32.23;25.07;99406.47;5089883;28;20067;-69
2022/08/02 06:51:30;;;;;;;7.20;2.20;;;;;;;32.40;24.90;99414.97;5088330;28;20390;-68
2022/08/02 06:53:56;;;;;;;12.48;2.75;;;;;;;32.44;25.00;99412.44;5088143;28;20048;-69
2022/08/02 06:56:22;;;;;;;14.52;3.75;;;;;;;32.50;25.33;99409.28;5071719;28;20040;-69
2022/08/02 06:58:50;;;;;;;18.50;3.42;;;;;;;32.81;25.00;99414.94;5071544;28;20047;-70
2022/08/02 07:01:17;;;;;;;10.18;2.47;;;;;;;32.94;24.27;99405.06;5088460;28;20097;-69
2022/08/02 07:03:45;;;;;;;11.63;2.28;;;;;;;32.85;23.93;99398.63;5088199;28;20083;-68
2022/08/02 07:06:11;;;;;;;7.85;2.15;;;;;;;33.16;23.85;99411.41;5072577;28;20043;-69
2022/08/02 07:08:37;;;;;;;7.50;1.77;;;;;;;33.37;23.19;99406.22;5070741;28;20044;-68
2022/08/02 07:11:04;;;;;;;9.82;2.75;;;;;;;33.53;22.83;99397.31;5071409;28;20122;-68
2022/08/02 07:13:30;;;;;;;7.85;1.95;;;;;;;33.83;22.79;99406.72;5088982;28;20128;-69
2022/08/02 07:15:56;;;;;;;10.15;2.13;;;;;;;34.22;22.30;99406.81;5088388;28;20105;-68
2022/08/02 07:18:23;;;;;;;11.40;1.90;;;;;;;34.47;21.00;99394.25;5055319;28;20051;-69
2022/08/02 07:20:48;;;;;;;8.48;1.88;;;;;;;34.82;20.97;99407.81;5088616;28;20044;-68
2022/08/02 07:23:14;;;;;;;4.72;2.00;;;;;;;35.51;20.53;99406.75;5055001;28;20876;-67
2022/08/02 07:25:40;;;;;;;10.75;2.08;;;;;;;36.30;18.71;99392.44;5087935;28;20054;-69
2022/08/02 07:28:09;;;;;;;3.20;1.70;;;;;;;36.85;17.98;99405.00;5071435;28;20046;-68
2022/08/02 07:30:35;;;;;;;1.38;1.23;;;;;;;36.83;17.45;99412.84;5055477;28;20939;-67
2022/08/02 07:33:01;;;;;;;7.35;2.00;;;;;;;37.93;17.04;99395.59;5088452;28;20070;-68
2022/08/02 07:35:26;;;;;;;2.35;1.60;;;;;;;38.66;16.75;99403.66;5054498;28;20039;-67
2022/08/02 07:37:52;;;;;;;7.47;1.60;;;;;;;38.51;16.40;99404.34;5088252;28;20048;-68
2022/08/02 07:40:18;;;;;;;4.60;1.70;;;;;;;36.90;17.97;99393.75;5071287;28;20158;-68
2022/08/02 07:42:45;;;;;;;3.88;1.80;;;;;;;36.34;19.01;99394.19;5071377;28;20424;-68
2022/08/02 07:45:11;;;;;;;8.15;1.98;;;;;;;35.94;19.72;99405.88;5088380;28;20100;-68
2022/08/02 07:47:38;;;;;;;9.85;1.95;;;;;;;35.70;19.93;99396.13;5087870;28;20544;-68
2022/08/02 07:50:05;;;;;;;4.90;1.58;;;;;;;35.97;18.90;99410.78;5089335;28;20383;-68
2022/08/02 07:52:33;;;;;;;;;;;;;;;38.11;17.22;99406.19;5088664;28;20055;-67
2022/08/02 07:55:01;;;;;;;4.45;1.50;;;;;;;40.43;14.93;99409.59;5089149;28;20365;-68
2022/08/02 07:57:27;;;;;;;8.80;1.90;;;;;;;41.91;13.72;99408.13;5089307;28;20047;-69
2022/08/02 07:59:53;;;;;;;7.00;1.35;;;;;;;43.98;10.96;99395.22;5071826;28;20032;-68
2022/08/02 08:02:18;;;;;;;4.55;1.30;;;;;;;43.00;10.75;99416.34;5071525;28;20515;-69
2022/08/02 08:04:44;;;;;;;1.70;1.05;;;;;;;42.68;10.77;99396.31;5087726;28;20048;-69
2022/08/02 08:07:10;;;;;;;6.15;1.15;;;;;;;40.30;12.98;99396.94;5088181;28;20032;-69
2022/08/02 08:09:40;;;;;;;2.85;1.40;;;;;;;37.68;15.19;99391.13;5087607;28;20040;-68
2022/08/02 08:12:08;;;;;;;3.53;1.35;;;;;;;36.81;16.61;99386.63;5088510;28;20040;-69
2022/08/02 08:14:35;;;;;;;2.65;1.20;;;;;;;35.64;17.62;99389.16;5087592;28;20072;-69
2022/08/02 08:17:01;;;;;;;3.88;1.20;;;;;;;35.30;18.37;99386.44;5087303;28;20072;-71
2022/08/02 08:19:26;;;;;;;4.78;1.75;;;;;;;35.34;18.46;99386.59;5071041;28;20125;-67
2022/08/02 08:21:52;;;;;;;7.18;1.85;;;;;;;36.42;16.97;99378.69;5054448;28;20044;-69
2022/08/02 08:24:18;;;;;;;6.45;1.30;;;;;;;38.60;14.69;99396.75;5088118;28;20075;-70
2022/08/02 08:26:43;;;;;;;6.43;1.55;;;;;;;39.77;14.28;99403.81;5071718;28;20043;-69
2022/08/02 08:29:09;;;;;;;6.03;1.50;;;;;;;40.64;13.37;99404.53;5091663;28;20032;-69
2022/08/02 08:31:35;;;;;;;4.07;1.25;;;;;;;41.18;13.07;99386.69;5093336;28;20081;-70
2022/08/02 08:34:01;;;;;;;5.65;1.30;;;;;;;39.78;13.78;99386.78;5094534;28;20088;-69
2022/08/02 08:36:27;;;;;;;2.88;1.40;;;;;;;38.36;15.59;99366.19;5093975;28;20043;-68
2022/08/02 08:38:53;;;;;;;4.03;1.20;;;;;;;39.01;14.74;99397.63;5113231;28;20050;-68
2022/08/02 08:41:19;;;;;;;3.38;1.38;;;;;;;40.88;13.24;99387.59;5111794;28;20040;-67
2022/08/02 08:43:46;;;;;;;3.03;1.30;;;;;;;43.74;11.09;99392.13;5094787;28;20300;-71
2022/08/02 08:46:33;;;;;;;4.05;1.20;;;;;;;44.47;10.17;99392.09;5060791;28;20070;-71
2022/08/02 08:49:03;;;;;;;8.57;1.30;;;;;;;43.87;10.88;99369.09;5111518;28;20055;-70
2022/08/02 08:51:35;;;;;;;8.38;1.35;;;;;;;44.77;10.26;99381.50;5094714;28;20096;-71
2022/08/02 08:54:03;;;;;;;5.90;1.00;;;;;;;44.99;9.67;99382.41;5094561;28;20097;-70
2022/08/02 08:56:33;;;;;;;1.80;1.05;;;;;;;47.16;8.99;99374.28;5112563;28;20141;-71
2022/08/02 08:59:00;;;;;;;1.63;1.00;;;;;;;46.17;9.18;99375.63;5111039;28;20043;-71
2022/08/02 09:01:26;;;;;;;1.75;1.20;;;;;;;42.73;11.14;99361.69;5111044;28;20039;-70
2022/08/02 09:03:52;;;;;;;3.75;1.17;;;;;;;41.96;11.39;99354.78;5110368;28;20042;-69
2022/08/02 09:06:17;;;;;;;6.60;1.20;;;;;;;41.35;12.30;99352.00;5076632;28;20069;-69
2022/08/02 09:08:43;;;;;;;3.30;1.00;;;;;;;41.32;12.02;99355.50;5087912;28;20089;-70
2022/08/02 09:11:16;;;;;;;3.63;1.38;;;;;;;40.07;13.07;99364.13;5091222;28;20044;-70
2022/08/02 09:13:51;;;;;;;5.20;1.20;;;;;;;40.30;13.14;99336.50;5090332;28;20040;-70
2022/08/02 09:16:27;;;;;;;3.75;1.20;;;;;;;41.34;12.27;99339.22;5057251;28;20040;-70
2022/08/02 09:18:53;;;;;;;2.97;1.30;;;;;;;41.98;11.69;99353.22;5074384;28;20642;-70
2022/08/02 09:21:19;;;;;;;5.45;1.20;;;;;;;41.82;11.74;99357.28;5090875;28;20066;-70
2022/08/02 09:23:50;;;;;;;3.67;1.10;;;;;;;41.44;12.17;99338.66;5057771;28;20097;-72
2022/08/02 09:26:22;;;;;;;2.03;1.08;;;;;;;40.83;12.08;99341.31;5057935;28;20408;-70
2022/08/02 09:28:53;;;;;;;2.17;1.20;;;;;;;42.97;10.90;99327.66;5091928;28;20051;-70
2022/08/02 09:31:20;;;;;;;5.53;1.25;;;;;;;44.84;9.41;99345.09;5072760;28;20052;-71
2022/08/02 09:33:57;;;;;;;2.03;1.10;;;;;;;46.33;8.54;99317.03;5091351;28;20044;-71
2022/08/02 09:36:24;;;;;;;3.78;1.10;;;;;;;47.43;7.53;99344.41;5063217;28;20519;-71
2022/08/02 09:38:54;;;;;;;3.88;1.15;;;;;;;47.95;7.52;99350.16;5059224;28;20070;-69
2022/08/02 09:41:29;;;;;;;3.47;1.10;;;;;;;49.98;6.43;99335.72;5090149;28;20048;-69
2022/08/02 09:43:59;;;;;;;2.67;1.00;;;;;;;51.10;5.81;99342.13;5073788;28;20328;-70
2022/08/02 09:46:29;;;;;;;5.25;1.20;;;;;;;51.67;5.06;99344.56;5089995;28;20077;-69
2022/08/02 09:49:02;;;;;;;2.92;1.08;;;;;;;52.68;5.02;99349.69;5090439;28;20047;-69
2022/08/02 09:51:31;;;;;;;7.22;1.00;;;;;;;54.41;4.05;99348.72;5090137;28;20756;-70
2022/08/02 09:53:59;;;;;;;1.63;0.93;;;;;;;55.81;3.42;99339.78;5090432;28;20455;-69
2022/08/02 09:56:26;;;;;;;1.80;0.90;;;;;;;56.11;3.19;99343.84;5091430;28;20052;-71
2022/08/02 09:58:54;;;;;;;1.95;1.00;;;;;;;56.30;2.99;99340.53;5057019;28;20509;-70
2022/08/02 10:01:20;;;;;;;0.88;0.85;;;;;;;54.80;3.35;99339.63;5055480;28;20044;-72
2022/08/02 10:03:54;;;;;;;3.50;0.80;;;;;;;55.13;3.45;99340.06;5089169;28;20077;-69
2022/08/02 10:06:21;;;;;;;5.13;0.90;;;;;;;55.96;3.17;99339.97;5088887;28;20044;-69
2022/08/02 10:08:46;;;;;;;2.05;1.00;;;;;;;54.51;3.75;99329.69;5055780;28;20067;-69
2022/08/02 10:11:13;;;;;;;4.75;1.02;;;;;;;52.17;4.60;99330.75;5072244;28;20075;-70
2022/08/02 10:13:39;;;;;;;3.22;1.05;;;;;;;48.53;6.27;99330.31;5071668;28;20083;-69
2022/08/02 10:16:05;;;;;;;1.45;1.05;;;;;;;47.78;7.09;99320.88;5055403;28;20080;-69
2022/08/02 10:18:31;;;;;;;3.92;1.00;;;;;;;49.34;6.17;99316.09;5090177;28;20139;-70
2022/08/02 10:21:00;;;;;;;4.43;1.10;;;;;;;52.02;4.92;99326.72;5072235;28;20143;-69
2022/08/02 10:23:28;;;;;;;8.77;1.75;;;;;;;53.33;4.28;99342.53;5072430;28;20043;-69
2022/08/02 10:25:56;;;;;;;2.72;0.80;;;;;;;53.21;4.27;99334.75;5055993;28;20146;-69
2022/08/02 10:28:26;;;;;;;8.15;1.30;;;;;;;54.62;3.63;99324.44;5088740;28;20505;-71
2022/08/02 10:30:52;;;;;;;2.33;1.10;;;;;;;55.12;3.14;99323.41;5072323;28;20074;-71
2022/08/02 10:33:19;;;;;;;2.80;1.00;;;;;;;56.09;2.97;99312.94;5072124;28;20047;-72
2022/08/02 10:35:47;;;;;;;3.00;1.00;;;;;;;54.85;3.40;99309.78;5088793;28;20087;-72
2022/08/02 10:38:15;;;;;;;8.75;1.00;;;;;;;52.32;4.30;99326.34;5088453;28;20040;-71
2022/08/02 10:40:49;;;;;;;5.68;0.93;;;;;;;48.55;6.62;99302.50;5088908;28;20067;-73
2022/08/02 10:43:37;;;;;;;1.90;0.88;;;;;;;45.87;7.54;99299.38;5055526;28;20157;-73
2022/08/02 10:46:20;;;;;;;8.15;1.30;;;;;;;45.12;8.56;99305.19;5086331;28;20048;-70
2022/08/02 10:49:20;;;;;;;2.35;1.10;;;;;;;45.86;8.14;99295.75;5070814;28;20051;-70
2022/08/02 10:52:01;;;;;;;2.67;1.00;;;;;;;46.49;7.51;99299.75;5088633;28;20040;-70
2022/08/02 10:54:50;;;;;;;4.80;1.20;;;;;;;46.12;7.89;99300.16;5088953;28;20040;-70
2022/08/02 10:57:20;;;;;;;4.93;1.25;;;;;;;45.02;8.80;99286.31;5086175;28;20047;-69
2022/08/02 10:59:48;;;;;;;3.70;1.00;;;;;;;42.22;10.12;99285.84;5054577;28;20051;-71
2022/08/02 11:02:35;;;;;;;2.80;1.27;;;;;;;41.02;11.15;99293.97;5056362;28;20051;-70
2022/08/02 11:05:07;;;;;;;3.63;1.08;;;;;;;40.92;11.53;99294.56;5085350;28;20512;-68
2022/08/02 11:07:42;;;;;;;8.57;1.25;;;;;;;41.11;11.54;99291.81;5088362;28;20051;-70
2022/08/02 11:10:23;;;;;;;2.97;1.35;;;;;;;41.27;11.29;99292.50;5089685;28;20036;-70
2022/08/02 11:13:10;;;;;;;4.13;1.30;;;;;;;39.99;12.00;99301.16;5078567;28;20161;-69
2022/08/02 11:16:05;;;;;;;6.40;1.20;;;;;;;39.29;12.98;99288.09;5071204;28;20047;-69
2022/08/02 11:18:49;;;;;;;10.77;3.50;;;;;;;39.84;12.55;99284.47;5066513;28;20074;-72
2022/08/02 11:21:30;;;;;;;1.42;1.25;;;;;;;39.09;13.22;99291.13;5081977;28;20804;-71
2022/08/02 11:24:29;;;;;;;2.60;1.20;;;;;;;37.65;14.07;99276.19;5088874;28;20519;-70
2022/08/02 11:26:55;;;;;;;10.57;1.60;;;;;;;36.84;14.98;99281.56;5088097;28;20040;-70
2022/08/02 11:29:21;;;;;;;6.22;1.40;;;;;;;36.39;15.38;99269.53;5088971;28;20482;-69
2022/08/02 11:31:47;;;;;;;4.05;1.80;;;;;;;36.16;15.88;99284.78;5036496;28;20126;-69
2022/08/02 11:34:17;;;;;;;6.40;1.48;;;;;;;35.87;16.25;99287.53;5071508;28;20052;-69
2022/08/02 11:36:50;;;;;;;8.85;1.60;;;;;;;35.85;16.55;99289.00;5087164;28;20052;-69
2022/08/02 11:39:23;;;;;;;6.30;1.88;;;;;;;36.51;16.12;99277.06;5060892;28;20041;-69
2022/08/02 11:41:51;;;;;;;3.50;1.90;;;;;;;36.90;15.88;99284.94;5067432;28;20040;-69
2022/08/02 11:44:18;;;;;;;4.80;2.00;;;;;;;37.51;15.27;99289.56;5086095;28;20103;-69
2022/08/02 11:47:01;;;;;;;3.08;1.75;;;;;;;37.97;15.05;99285.56;5085666;28;20036;-69
2022/08/02 11:49:27;;;;;;;11.60;1.63;;;;;;;37.22;15.44;99287.75;5068129;28;20036;-71
2022/08/02 11:52:05;;;;;;;2.92;1.38;;;;;;;36.71;15.67;99276.25;5066987;28;20036;-71
2022/08/02 11:54:35;;;;;;;5.80;1.40;;;;;;;36.32;15.67;99273.97;5069956;28;20044;-70
2022/08/02 11:57:17;;;;;;;2.65;1.48;;;;;;;35.62;16.83;99280.94;5088331;28;20044;-69